Time;durP1;ratioP1;P1;durP2;ratioP2;P2;SDS_P1;SDS_P2;PMS_P1;PMS_P2;Temp;Humidity;BMP_temperature;BMP_pressure;BME280_temperature;BME280_humidity;BME280_pressure;Samples;Min_cycle;Max_cycle;Signal;HPM_P1;HPM_P2
2022/06/19 00:00:10;;;;;;;6.57;2.30;;;15.30;99.90;;;;;;5074393;28;20087;-68
2022/06/19 00:02:36;;;;;;;5.25;1.75;;;15.40;99.90;;;;;;5074673;28;20376;-68
2022/06/19 00:05:02;;;;;;;13.70;2.33;;;15.30;99.90;;;;;;5074493;28;20109;-68
2022/06/19 00:07:27;;;;;;;6.72;2.58;;;15.40;99.90;;;;;;5074574;28;20037;-69
2022/06/19 00:09:53;;;;;;;13.55;1.90;;;15.30;99.90;;;;;;5043547;28;20048;-68
2022/06/19 00:12:19;;;;;;;10.63;1.83;;;15.40;99.90;;;;;;5074164;28;20048;-68
2022/06/19 00:14:46;;;;;;;8.63;1.45;;;15.40;99.90;;;;;;5057062;28;20080;-68
2022/06/19 00:17:13;;;;;;;3.78;1.20;;;15.40;99.90;;;;;;5056787;28;20056;-68
2022/06/19 00:19:39;;;;;;;5.97;1.58;;;15.30;99.90;;;;;;5056685;28;20048;-68
2022/06/19 00:22:05;;;;;;;12.60;1.77;;;15.40;99.90;;;;;;5056417;28;20040;-70
2022/06/19 00:24:31;;;;;;;7.53;1.42;;;15.40;99.90;;;;;;5074425;28;20081;-68
2022/06/19 00:26:57;;;;;;;7.80;1.88;;;15.30;99.90;;;;;;5080685;28;20083;-68
2022/06/19 00:29:22;;;;;;;2.33;0.80;;;15.40;99.90;;;;;;5098543;28;20405;-68
2022/06/19 00:31:48;;;;;;;5.20;1.10;;;15.40;99.90;;;;;;5098478;28;20108;-68
2022/06/19 00:34:14;;;;;;;5.95;1.52;;;15.40;99.90;;;;;;5080469;28;20422;-68
2022/06/19 00:36:39;;;;;;;3.67;1.27;;;15.40;99.90;;;;;;5080461;28;20115;-68
2022/06/19 00:39:05;;;;;;;6.40;1.33;;;15.40;99.90;;;;;;5067231;28;20041;-68
2022/06/19 00:41:34;;;;;;;4.78;1.45;;;15.50;99.90;;;;;;5060882;28;20364;-68
2022/06/19 00:44:06;;;;;;;4.85;2.13;;;15.50;99.90;;;;;;5077972;28;20041;-68
2022/06/19 00:46:46;;;;;;;8.38;1.65;;;15.40;99.90;;;;;;5059783;28;20052;-68
2022/06/19 00:49:20;;;;;;;4.65;1.25;;;15.40;99.90;;;;;;5077617;28;20127;-70
2022/06/19 00:51:48;;;;;;;6.07;1.30;;;15.30;99.90;;;;;;5077500;28;20084;-68
2022/06/19 00:54:19;;;;;;;7.90;1.60;;;15.40;99.90;;;;;;5076854;28;20131;-68
2022/06/19 00:56:45;;;;;;;3.10;1.13;;;15.30;99.90;;;;;;5059567;28;20061;-68
2022/06/19 00:59:13;;;;;;;8.52;1.05;;;15.10;99.90;;;;;;5059617;28;20057;-69
2022/06/19 01:01:39;;;;;;;4.97;1.13;;;15.20;99.90;;;;;;5059481;28;20048;-70
2022/06/19 01:04:37;;;;;;;2.90;1.17;;;15.20;99.90;;;;;;5059762;28;20049;-68
2022/06/19 01:07:03;;;;;;;7.38;1.30;;;15.20;99.90;;;;;;5060113;28;20159;-69
2022/06/19 01:09:29;;;;;;;5.80;1.55;;;15.20;99.90;;;;;;5077613;28;20109;-68
2022/06/19 01:11:54;;;;;;;6.60;1.75;;;15.20;99.90;;;;;;5059798;28;20045;-68
2022/06/19 01:14:23;;;;;;;4.13;1.35;;;15.30;99.90;;;;;;5059115;28;20040;-69
2022/06/19 01:16:49;;;;;;;5.32;1.98;;;15.30;99.90;;;;;;5058942;28;20057;-68
2022/06/19 01:19:26;;;;;;;5.55;1.55;;;15.20;99.90;;;;;;5076961;28;20059;-68
2022/06/19 01:22:02;;;;;;;5.40;1.13;;;15.20;99.90;;;;;;5076921;28;20056;-68
2022/06/19 01:24:36;;;;;;;7.88;1.90;;;15.20;99.90;;;;;;5059516;28;20059;-68
2022/06/19 01:27:07;;;;;;;3.03;1.15;;;15.20;99.90;;;;;;5062627;28;20083;-68
2022/06/19 01:29:33;;;;;;;10.88;1.70;;;15.20;99.90;;;;;;5060068;28;20175;-68
2022/06/19 01:32:02;;;;;;;5.80;1.63;;;15.30;99.90;;;;;;5077305;28;20041;-68
2022/06/19 01:34:39;;;;;;;8.75;2.50;;;15.20;99.90;;;;;;5075814;28;20400;-68
2022/06/19 01:37:17;;;;;;;10.18;2.60;;;15.20;99.90;;;;;;5059052;28;20052;-68
2022/06/19 01:39:49;;;;;;;5.85;1.52;;;15.20;99.90;;;;;;5076550;28;20059;-68
2022/06/19 01:42:15;;;;;;;7.35;2.45;;;15.20;99.90;;;;;;5067732;28;20060;-68
2022/06/19 01:44:42;;;;;;;6.05;2.00;;;15.10;99.90;;;;;;5076479;28;20133;-68
2022/06/19 01:47:09;;;;;;;9.63;1.58;;;15.00;99.90;;;;;;5058916;28;20063;-68
2022/06/19 01:49:36;;;;;;;8.88;1.95;;;15.00;99.90;;;;;;5076452;28;20048;-68
2022/06/19 01:52:06;;;;;;;9.70;2.50;;;15.10;99.90;;;;;;5058725;28;20048;-68
2022/06/19 01:54:37;;;;;;;9.48;2.03;;;14.90;99.90;;;;;;5058779;28;20127;-68
2022/06/19 01:57:06;;;;;;;8.88;3.13;;;14.90;99.90;;;;;;5042222;28;20080;-68
2022/06/19 01:59:33;;;;;;;7.55;1.25;;;14.90;99.90;;;;;;5038543;28;20106;-68
2022/06/19 02:02:03;;;;;;;7.63;2.22;;;14.90;99.90;;;;;;5038893;28;20056;-68
2022/06/19 02:04:31;;;;;;;7.15;1.58;;;14.90;99.90;;;;;;5055983;28;20119;-68
2022/06/19 02:07:01;;;;;;;9.63;1.73;;;14.90;99.90;;;;;;5056499;28;20053;-68
2022/06/19 02:09:27;;;;;;;8.80;1.58;;;14.90;99.90;;;;;;5039011;28;20052;-68
2022/06/19 02:11:54;;;;;;;5.10;1.15;;;14.80;99.90;;;;;;5056023;28;20056;-68
2022/06/19 02:14:21;;;;;;;11.02;2.58;;;14.80;99.90;;;;;;5038508;28;20068;-68
2022/06/19 02:16:48;;;;;;;7.13;1.50;;;14.80;99.90;;;;;;5038355;28;20464;-69
2022/06/19 02:19:15;;;;;;;10.43;2.38;;;14.80;99.90;;;;;;5055786;28;20126;-68
2022/06/19 02:21:54;;;;;;;5.55;1.80;;;14.60;99.90;;;;;;5055577;28;20044;-68
2022/06/19 02:24:23;;;;;;;20.55;2.47;;;14.70;99.90;;;;;;5021356;28;20098;-68
2022/06/19 02:26:51;;;;;;;6.53;1.98;;;14.70;99.90;;;;;;5065430;28;20044;-68
2022/06/19 02:29:18;;;;;;;7.68;1.88;;;14.70;99.90;;;;;;5057518;28;20060;-69
2022/06/19 02:31:51;;;;;;;13.98;3.65;;;14.70;99.90;;;;;;5076367;28;20383;-68
2022/06/19 02:34:31;;;;;;;2.88;1.17;;;14.70;99.90;;;;;;5058398;28;20048;-68
2022/06/19 02:37:01;;;;;;;10.20;2.60;;;14.80;99.90;;;;;;5075651;28;20036;-68
2022/06/19 02:39:56;;;;;;;16.27;2.60;;;14.90;99.90;;;;;;5057997;28;20052;-68
2022/06/19 02:42:26;;;;;;;9.35;2.17;;;14.80;99.90;;;;;;5070266;28;20040;-69
2022/06/19 02:44:57;;;;;;;8.70;1.50;;;14.80;99.90;;;;;;5058174;28;20071;-67
2022/06/19 02:47:25;;;;;;;7.68;1.65;;;14.80;99.90;;;;;;5058279;28;20049;-67
2022/06/19 02:49:51;;;;;;;8.32;1.80;;;14.80;99.90;;;;;;5053600;28;20079;-67
2022/06/19 02:52:17;;;;;;;8.57;2.13;;;14.80;99.90;;;;;;5037989;28;20493;-68
2022/06/19 02:54:42;;;;;;;18.67;3.30;;;14.80;99.90;;;;;;5054746;28;20037;-67
2022/06/19 02:57:11;;;;;;;15.93;2.30;;;14.60;99.90;;;;;;5054248;28;20057;-67
2022/06/19 02:59:37;;;;;;;14.35;2.45;;;14.20;99.90;;;;;;5075518;28;20379;-67
2022/06/19 03:02:03;;;;;;;11.13;2.30;;;13.90;99.90;;;;;;5057603;28;20059;-68
2022/06/19 03:04:43;;;;;;;15.60;2.92;;;13.70;99.90;;;;;;5071494;28;20075;-67
2022/06/19 03:07:09;;;;;;;13.15;2.20;;;13.50;99.90;;;;;;5057775;28;20072;-67
2022/06/19 03:09:34;;;;;;;9.52;2.40;;;13.40;99.90;;;;;;5057553;28;20161;-67
2022/06/19 03:12:01;;;;;;;13.43;2.15;;;13.40;99.90;;;;;;5057646;28;20052;-67
2022/06/19 03:14:27;;;;;;;24.38;5.57;;;13.30;99.90;;;;;;5074865;28;20056;-67
2022/06/19 03:16:52;;;;;;;12.85;1.95;;;13.20;99.90;;;;;;5057658;28;20052;-67
2022/06/19 03:19:18;;;;;;;11.90;2.00;;;13.10;99.90;;;;;;5092468;28;20055;-67
2022/06/19 03:21:43;;;;;;;11.63;2.95;;;13.10;99.90;;;;;;5095101;28;20043;-68
2022/06/19 03:24:10;;;;;;;16.35;2.65;;;13.10;99.90;;;;;;5077707;28;20067;-67
2022/06/19 03:26:37;;;;;;;12.13;2.85;;;13.00;99.90;;;;;;5077200;28;20079;-67
2022/06/19 03:29:03;;;;;;;10.95;2.25;;;13.00;99.90;;;;;;5077061;28;20044;-67
2022/06/19 03:31:30;;;;;;;12.00;2.40;;;13.00;99.90;;;;;;5095244;28;20066;-67
2022/06/19 03:33:55;;;;;;;16.20;2.80;;;13.00;99.90;;;;;;5094494;28;20132;-68
2022/06/19 03:36:22;;;;;;;16.13;2.85;;;13.00;99.90;;;;;;5095185;28;20080;-68
2022/06/19 03:38:47;;;;;;;10.32;2.00;;;13.10;99.90;;;;;;5077432;28;20365;-67
2022/06/19 03:41:14;;;;;;;25.83;4.15;;;13.10;99.90;;;;;;5077525;28;20048;-67
2022/06/19 03:43:40;;;;;;;17.05;2.97;;;13.10;99.90;;;;;;5095060;28;20406;-67
2022/06/19 03:46:14;;;;;;;14.43;3.10;;;13.10;99.90;;;;;;5094111;28;20130;-68
2022/06/19 03:48:45;;;;;;;12.85;3.08;;;13.00;99.90;;;;;;5093058;28;20366;-68
2022/06/19 03:51:12;;;;;;;10.93;1.98;;;13.00;99.90;;;;;;5077065;28;20098;-67
2022/06/19 03:53:38;;;;;;;11.77;3.13;;;13.00;99.90;;;;;;5077009;28;20040;-68
2022/06/19 03:56:06;;;;;;;13.30;2.58;;;13.00;99.90;;;;;;5095146;28;20368;-67
2022/06/19 03:58:47;;;;;;;15.23;2.65;;;13.00;99.90;;;;;;5062869;28;20055;-67
2022/06/19 04:01:17;;;;;;;7.07;2.00;;;13.10;99.90;;;;;;5080793;28;20337;-68
2022/06/19 04:03:45;;;;;;;14.20;2.15;;;13.00;99.90;;;;;;5073197;28;20100;-67
2022/06/19 04:06:12;;;;;;;7.63;2.80;;;13.00;99.90;;;;;;5078419;28;20490;-68
2022/06/19 04:08:38;;;;;;;15.98;2.80;;;12.90;99.90;;;;;;5078208;28;20457;-67
2022/06/19 04:11:05;;;;;;;10.43;2.42;;;12.80;99.90;;;;;;5060892;28;20052;-67
2022/06/19 04:13:35;;;;;;;17.83;3.10;;;12.80;99.90;;;;;;5078268;28;20044;-70
2022/06/19 04:16:02;;;;;;;15.85;3.85;;;12.80;99.90;;;;;;5060817;28;20110;-70
2022/06/19 04:18:29;;;;;;;10.00;3.05;;;12.80;99.90;;;;;;5074589;28;20044;-70
2022/06/19 04:20:56;;;;;;;12.38;1.88;;;12.80;99.90;;;;;;5098387;28;20376;-70
2022/06/19 04:23:22;;;;;;;11.15;2.33;;;12.70;99.90;;;;;;5080635;28;20135;-70
2022/06/19 04:25:48;;;;;;;12.07;1.98;;;12.70;99.90;;;;;;5098197;28;20119;-70
2022/06/19 04:28:14;;;;;;;10.63;2.00;;;12.70;99.90;;;;;;5080717;28;20048;-70
2022/06/19 04:30:46;;;;;;;4.95;1.30;;;12.60;99.90;;;;;;5080856;28;20063;-70
2022/06/19 04:33:13;;;;;;;15.10;3.08;;;12.60;99.90;;;;;;5065500;28;20115;-70
2022/06/19 04:35:39;;;;;;;11.55;2.25;;;12.60;99.90;;;;;;5060847;28;20484;-70
2022/06/19 04:38:04;;;;;;;9.95;2.40;;;12.70;99.90;;;;;;5060580;28;20078;-70
2022/06/19 04:40:30;;;;;;;14.95;2.38;;;12.70;99.90;;;;;;5060223;28;20431;-70
2022/06/19 04:42:55;;;;;;;9.45;2.53;;;12.70;99.90;;;;;;5059829;28;20071;-70
2022/06/19 04:45:21;;;;;;;9.20;2.42;;;12.80;99.90;;;;;;5077399;28;20050;-70
2022/06/19 04:47:46;;;;;;;6.00;1.85;;;12.80;99.90;;;;;;5068426;28;20040;-70
2022/06/19 04:50:13;;;;;;;10.65;2.70;;;12.90;99.90;;;;;;5079810;28;20044;-70
2022/06/19 04:52:38;;;;;;;9.43;3.30;;;12.90;99.90;;;;;;5079924;28;20044;-67
2022/06/19 04:55:04;;;;;;;8.23;1.80;;;13.00;99.90;;;;;;5080157;28;20052;-68
2022/06/19 04:57:30;;;;;;;16.58;3.17;;;13.00;99.90;;;;;;5079557;28;20052;-68
2022/06/19 04:59:55;;;;;;;10.75;3.17;;;13.10;99.90;;;;;;5097868;28;20048;-67
2022/06/19 05:02:21;;;;;;;9.90;2.72;;;13.30;99.90;;;;;;5067543;28;20086;-67
2022/06/19 05:04:50;;;;;;;12.63;2.92;;;13.40;99.90;;;;;;5059635;28;20445;-67
2022/06/19 05:07:15;;;;;;;8.90;2.03;;;13.60;99.90;;;;;;5078001;28;20072;-68
2022/06/19 05:09:41;;;;;;;7.22;1.90;;;13.60;99.90;;;;;;5093080;28;20050;-70
2022/06/19 05:12:07;;;;;;;11.00;2.05;;;13.50;99.90;;;;;;5099885;28;20044;-70
2022/06/19 05:14:32;;;;;;;5.78;2.10;;;13.30;99.90;;;;;;5099390;28;20035;-70
2022/06/19 05:16:58;;;;;;;3.28;0.90;;;13.20;99.90;;;;;;5105413;28;20514;-70
2022/06/19 05:19:23;;;;;;;4.22;1.45;;;13.10;99.90;;;;;;5076819;28;20076;-72
2022/06/19 05:21:54;;;;;;;5.43;1.00;;;13.00;99.90;;;;;;5060003;28;20052;-69
2022/06/19 05:24:20;;;;;;;6.47;1.00;;;12.90;99.90;;;;;;5042133;28;20032;-70
2022/06/19 05:26:46;;;;;;;8.95;1.38;;;12.70;99.90;;;;;;5076848;28;20036;-70
2022/06/19 05:29:12;;;;;;;7.28;1.40;;;12.70;99.90;;;;;;5074281;28;20040;-70
2022/06/19 05:31:38;;;;;;;4.13;1.30;;;12.60;99.90;;;;;;5087149;28;20587;-70
2022/06/19 05:34:04;;;;;;;5.97;1.15;;;12.60;99.90;;;;;;5089545;28;20044;-70
2022/06/19 05:36:30;;;;;;;3.60;1.20;;;12.60;99.90;;;;;;5070727;28;20502;-70
2022/06/19 05:38:56;;;;;;;7.63;2.22;;;12.60;99.90;;;;;;5072949;28;20103;-70
2022/06/19 05:41:23;;;;;;;4.72;1.90;;;12.60;99.90;;;;;;5076850;28;20048;-70
2022/06/19 05:43:49;;;;;;;9.73;2.05;;;12.70;99.90;;;;;;5076043;28;20400;-69
2022/06/19 05:46:18;;;;;;;8.48;2.58;;;12.90;99.90;;;;;;5076167;28;20050;-70
2022/06/19 05:48:44;;;;;;;10.10;1.45;;;12.80;99.90;;;;;;5058990;28;20048;-70
2022/06/19 05:51:16;;;;;;;5.22;1.27;;;13.00;99.90;;;;;;5058977;28;20080;-70
2022/06/19 05:54:00;;;;;;;11.95;1.98;;;12.90;99.90;;;;;;5058871;28;20369;-70
2022/06/19 05:56:27;;;;;;;8.35;1.77;;;12.90;99.90;;;;;;5047427;28;20492;-70
2022/06/19 05:58:53;;;;;;;9.90;1.80;;;13.00;99.90;;;;;;5022564;28;20084;-69
2022/06/19 06:01:20;;;;;;;4.60;1.50;;;13.10;99.90;;;;;;5056168;28;20084;-69
2022/06/19 06:03:46;;;;;;;5.35;1.48;;;13.10;99.90;;;;;;5038916;28;20056;-70
2022/06/19 06:06:18;;;;;;;10.52;2.90;;;13.20;99.90;;;;;;5038388;28;20128;-71
2022/06/19 06:08:44;;;;;;;14.98;2.55;;;13.20;99.90;;;;;;5038420;28;20055;-71
2022/06/19 06:11:10;;;;;;;6.57;2.35;;;13.30;99.90;;;;;;5064842;28;20045;-70
2022/06/19 06:13:35;;;;;;;7.63;2.03;;;13.20;99.90;;;;;;5050245;28;20401;-70
2022/06/19 06:16:02;;;;;;;9.85;2.20;;;13.30;99.90;;;;;;5038574;28;20084;-69
2022/06/19 06:18:28;;;;;;;8.15;2.25;;;13.30;99.90;;;;;;5057921;28;20050;-69
2022/06/19 06:21:00;;;;;;;7.57;1.38;;;13.30;99.90;;;;;;5076061;28;20453;-70
2022/06/19 06:23:27;;;;;;;11.90;2.08;;;13.30;99.90;;;;;;5075117;28;20040;-69
2022/06/19 06:26:08;;;;;;;5.88;2.25;;;13.30;99.90;;;;;;5039000;28;20106;-66
2022/06/19 06:28:36;;;;;;;7.63;2.03;;;13.20;99.90;;;;;;5038324;28;20122;-66
2022/06/19 06:31:02;;;;;;;14.07;2.30;;;13.40;99.90;;;;;;5038230;28;20059;-70
2022/06/19 06:33:29;;;;;;;10.60;1.90;;;13.10;99.90;;;;;;5054696;28;20049;-71
2022/06/19 06:35:55;;;;;;;9.05;1.65;;;13.10;99.90;;;;;;5038360;28;20091;-67
2022/06/19 06:38:21;;;;;;;12.27;1.98;;;13.10;99.90;;;;;;5055348;28;20045;-67
2022/06/19 06:40:47;;;;;;;7.80;1.98;;;13.20;99.90;;;;;;5059000;28;20369;-67
2022/06/19 06:43:13;;;;;;;5.15;1.70;;;13.30;99.90;;;;;;5057851;28;20052;-67
2022/06/19 06:45:38;;;;;;;6.75;2.00;;;13.60;99.90;;;;;;5057520;28;20052;-67
2022/06/19 06:48:04;;;;;;;8.40;2.38;;;13.50;99.90;;;;;;5057347;28;20058;-68
2022/06/19 06:50:30;;;;;;;8.10;2.00;;;13.60;99.90;;;;;;5075192;28;20067;-67
2022/06/19 06:52:56;;;;;;;9.70;2.25;;;13.70;99.90;;;;;;5057751;28;20056;-67
2022/06/19 06:55:21;;;;;;;9.43;1.83;;;13.80;99.90;;;;;;5055487;28;20033;-68
2022/06/19 06:57:47;;;;;;;15.82;4.22;;;13.80;99.90;;;;;;5075634;28;20059;-67
2022/06/19 07:00:19;;;;;;;11.05;2.08;;;13.90;99.90;;;;;;5077568;28;20054;-67
2022/06/19 07:02:45;;;;;;;11.70;1.75;;;14.00;99.90;;;;;;5077343;28;20063;-67
2022/06/19 07:05:12;;;;;;;10.52;3.25;;;14.00;99.90;;;;;;5095106;28;20058;-67
2022/06/19 07:07:38;;;;;;;7.05;2.13;;;14.00;99.90;;;;;;5095520;28;20126;-67
2022/06/19 07:10:04;;;;;;;6.82;1.60;;;14.10;99.90;;;;;;5077376;28;20564;-67
2022/06/19 07:12:29;;;;;;;7.38;1.67;;;14.10;99.90;;;;;;5088015;28;20041;-67
2022/06/19 07:14:56;;;;;;;13.00;4.00;;;14.10;99.90;;;;;;5074823;28;20051;-67
2022/06/19 07:17:21;;;;;;;12.35;1.40;;;14.10;99.90;;;;;;5057191;28;20055;-68
2022/06/19 07:19:47;;;;;;;8.40;1.48;;;14.20;99.90;;;;;;5057988;28;20044;-67
2022/06/19 07:22:14;;;;;;;15.50;2.42;;;14.30;99.90;;;;;;5074727;28;20459;-67
2022/06/19 07:24:41;;;;;;;9.02;2.03;;;14.10;99.90;;;;;;5057341;28;20109;-67
2022/06/19 07:27:07;;;;;;;7.03;2.10;;;14.10;99.90;;;;;;5061542;28;20066;-67
2022/06/19 07:29:33;;;;;;;8.75;2.70;;;14.10;99.90;;;;;;5112271;28;20130;-67
2022/06/19 07:31:58;;;;;;;8.15;1.98;;;14.10;99.90;;;;;;5079444;28;20415;-67
2022/06/19 07:34:24;;;;;;;11.30;2.67;;;14.20;99.90;;;;;;5108127;28;20079;-67
2022/06/19 07:36:49;;;;;;;14.63;1.85;;;14.20;99.90;;;;;;5104687;28;20055;-67
2022/06/19 07:39:15;;;;;;;11.90;2.63;;;14.30;99.90;;;;;;5097539;28;20043;-67
2022/06/19 07:41:41;;;;;;;7.72;1.85;;;14.40;99.90;;;;;;5069832;28;20401;-67
2022/06/19 07:44:06;;;;;;;8.27;2.03;;;14.30;99.90;;;;;;5057054;28;20141;-67
2022/06/19 07:46:32;;;;;;;5.38;1.58;;;14.40;99.90;;;;;;5074381;28;20075;-68
2022/06/19 07:51:41;;;;;;;9.95;1.77;;;14.40;99.90;;;;;;5086953;28;20040;-67
2022/06/19 07:54:07;;;;;;;4.20;1.20;;;14.40;99.90;;;;;;5072491;28;20060;-67
2022/06/19 07:56:33;;;;;;;6.07;1.42;;;14.40;99.90;;;;;;5091465;28;20349;-67
2022/06/19 07:58:59;;;;;;;10.65;2.10;;;14.40;99.90;;;;;;5067513;28;20048;-68
2022/06/19 08:01:25;;;;;;;13.30;1.88;;;14.40;99.90;;;;;;5074506;28;20052;-68
2022/06/19 08:03:51;;;;;;;8.77;2.00;;;14.50;99.90;;;;;;5056670;28;20074;-68
2022/06/19 08:06:19;;;;;;;12.07;2.15;;;14.40;99.90;;;;;;5074399;28;20437;-67
2022/06/19 08:08:45;;;;;;;11.85;3.03;;;14.50;99.90;;;;;;5056867;28;20471;-67
2022/06/19 08:11:12;;;;;;;9.25;1.98;;;14.60;99.90;;;;;;5056473;28;20044;-67
2022/06/19 08:13:38;;;;;;;15.45;2.13;;;14.70;99.90;;;;;;5056511;28;20128;-68
2022/06/19 08:16:07;;;;;;;8.65;1.55;;;14.80;99.90;;;;;;5074696;28;20064;-68
2022/06/19 08:18:33;;;;;;;7.40;1.95;;;14.80;99.90;;;;;;5074151;28;20507;-67
2022/06/19 08:20:59;;;;;;;4.15;1.80;;;14.70;99.90;;;;;;5074573;28;20375;-67
2022/06/19 08:23:25;;;;;;;8.80;1.92;;;14.70;99.90;;;;;;5074603;28;20132;-67
2022/06/19 08:25:51;;;;;;;7.93;1.98;;;14.70;99.90;;;;;;5059498;28;20045;-67
2022/06/19 08:31:11;;;;;;;6.53;1.65;;;14.70;99.90;;;;;;5038025;28;20456;-68
2022/06/19 08:33:37;;;;;;;3.88;1.67;;;14.70;99.90;;;;;;5090901;28;20051;-67
2022/06/19 08:36:07;;;;;;;6.25;1.40;;;14.80;99.90;;;;;;5085931;28;20360;-68
2022/06/19 08:38:37;;;;;;;7.47;1.98;;;14.80;99.90;;;;;;5082239;28;20087;-68
2022/06/19 08:41:15;;;;;;;6.05;1.60;;;14.90;99.90;;;;;;5077103;28;20345;-67
2022/06/19 08:44:10;;;;;;;5.20;2.00;;;14.90;99.90;;;;;;5077277;28;20521;-68
2022/06/19 08:46:36;;;;;;;5.85;1.60;;;15.00;99.90;;;;;;5075877;28;20113;-67
2022/06/19 08:49:29;;;;;;;7.60;1.63;;;15.10;99.90;;;;;;5077541;28;20082;-68
2022/06/19 08:52:01;;;;;;;7.03;1.83;;;15.20;99.90;;;;;;5077413;28;20346;-68
2022/06/19 08:54:55;;;;;;;11.80;1.48;;;15.50;99.90;;;;;;5077178;28;20044;-68
2022/06/19 08:57:47;;;;;;;6.85;1.92;;;15.60;99.90;;;;;;5039750;28;20118;-68
2022/06/19 09:00:48;;;;;;;8.10;1.80;;;15.70;99.90;;;;;;5071494;28;20056;-68
2022/06/19 09:07:13;;;;;;;7.72;1.80;;;15.70;99.90;;;;;;5014859;28;20065;-68
2022/06/19 09:09:59;;;;;;;15.88;2.25;;;15.70;99.90;;;;;;5067198;28;20369;-68
2022/06/19 09:12:42;;;;;;;9.57;2.10;;;15.80;99.90;;;;;;5055808;28;20096;-68
2022/06/19 09:15:16;;;;;;;9.02;1.98;;;15.80;99.90;;;;;;5056422;28;20088;-67
2022/06/19 09:17:44;;;;;;;;;;;15.90;99.90;;;;;;5057602;28;20056;-68
2022/06/19 09:20:33;;;;;;;7.85;1.73;;;15.80;99.90;;;;;;5055686;28;19920;-68
2022/06/19 09:23:10;;;;;;;5.97;1.33;;;15.80;99.90;;;;;;5055464;28;20036;-66
2022/06/19 09:25:48;;;;;;;7.53;1.45;;;15.90;99.90;;;;;;5055882;28;20055;-67
2022/06/19 09:28:53;;;;;;;6.80;1.63;;;16.10;99.90;;;;;;5056203;28;20114;-68
2022/06/19 09:32:03;;;;;;;6.50;1.65;;;15.90;99.90;;;;;;5024801;28;20430;-68
2022/06/19 09:34:53;;;;;;;6.80;1.50;;;15.80;99.90;;;;;;5070989;28;20140;-68
2022/06/19 09:37:28;;;;;;;6.95;1.50;;;15.70;99.90;;;;;;5068605;28;20116;-69
2022/06/19 09:40:10;;;;;;;7.65;1.50;;;15.60;99.90;;;;;;5073140;28;20061;-69
2022/06/19 09:42:43;;;;;;;6.30;1.60;;;15.50;99.90;;;;;;5095576;28;20044;-70
2022/06/19 09:45:12;;;;;;;5.53;1.20;;;15.40;99.90;;;;;;5085996;28;20044;-69
2022/06/19 09:47:50;;;;;;;5.32;1.33;;;15.60;99.90;;;;;;5100695;28;20048;-69
2022/06/19 09:50:33;;;;;;;5.43;1.58;;;15.70;99.90;;;;;;5090158;28;20101;-69
2022/06/19 09:53:27;;;;;;;3.80;1.48;;;15.80;99.90;;;;;;5043542;28;20140;-69
2022/06/19 09:56:05;;;;;;;;;;;15.90;99.90;;;;;;5076036;28;20063;-70
2022/06/19 09:58:41;;;;;;;2.30;1.02;;;16.20;99.90;;;;;;5073120;28;20334;-70
2022/06/19 10:01:07;;;;;;;8.52;1.58;;;16.40;99.90;;;;;;5070562;28;20052;-70
2022/06/19 10:03:39;;;;;;;7.38;1.65;;;16.50;99.90;;;;;;5069851;28;20038;-69
2022/06/19 10:06:22;;;;;;;6.57;2.70;;;16.60;99.90;;;;;;5078279;28;20047;-70
2022/06/19 10:09:03;;;;;;;5.50;1.25;;;16.60;99.90;;;;;;5078734;28;20056;-70
2022/06/19 10:11:34;;;;;;;6.18;1.27;;;16.60;99.90;;;;;;5078768;28;20079;-70
2022/06/19 10:14:16;;;;;;;5.95;1.88;;;16.30;99.90;;;;;;5077617;28;20043;-70
2022/06/19 10:16:58;;;;;;;5.90;1.83;;;16.40;99.90;;;;;;5070619;28;20507;-69
2022/06/19 10:19:45;;;;;;;3.92;1.48;;;16.40;99.90;;;;;;5076193;28;20052;-68
2022/06/19 10:22:35;;;;;;;3.90;1.40;;;16.30;99.90;;;;;;5075666;28;20075;-68
2022/06/19 10:25:31;;;;;;;4.22;1.17;;;16.20;99.90;;;;;;5058209;28;20076;-68
2022/06/19 10:28:25;;;;;;;6.13;1.45;;;16.20;99.90;;;;;;5075897;28;20080;-68
2022/06/19 10:31:16;;;;;;;5.43;1.35;;;16.30;99.90;;;;;;5072227;28;20053;-68
2022/06/19 10:34:16;;;;;;;5.03;1.42;;;16.40;99.90;;;;;;5058392;28;20094;-68
2022/06/19 10:36:46;;;;;;;3.85;1.15;;;16.40;99.90;;;;;;5058351;28;20052;-69
2022/06/19 10:39:20;;;;;;;5.22;0.85;;;16.30;99.90;;;;;;5057622;28;20123;-70
2022/06/19 10:42:05;;;;;;;3.25;1.17;;;16.20;99.90;;;;;;5057706;28;20044;-69
2022/06/19 10:44:57;;;;;;;2.40;0.90;;;16.30;99.90;;;;;;5057407;28;20520;-69
2022/06/19 10:47:41;;;;;;;4.47;1.33;;;16.20;99.90;;;;;;5065003;28;20044;-69
2022/06/19 10:50:23;;;;;;;3.17;1.10;;;16.10;99.90;;;;;;5077922;28;20106;-70
2022/06/19 10:52:54;;;;;;;2.83;0.70;;;16.10;99.90;;;;;;5078455;28;20097;-70
2022/06/19 10:55:39;;;;;;;5.47;1.27;;;16.20;99.90;;;;;;5077461;28;20044;-71
2022/06/19 10:58:14;;;;;;;3.60;1.02;;;16.20;99.90;;;;;;5077476;28;20460;-69
2022/06/19 11:00:41;;;;;;;3.47;1.35;;;16.20;99.90;;;;;;5095271;28;20043;-69
2022/06/19 11:06:26;;;;;;;5.78;1.10;;;16.40;99.90;;;;;;5057683;28;20052;-69
2022/06/19 11:09:00;;;;;;;2.30;0.88;;;16.40;99.90;;;;;;5073962;28;20125;-70
2022/06/19 11:11:26;;;;;;;;;;;16.50;99.90;;;;;;5070363;28;20048;-69
2022/06/19 11:13:59;;;;;;;3.90;1.02;;;16.60;99.90;;;;;;5057367;28;20253;-70
2022/06/19 11:16:26;;;;;;;2.92;0.90;;;16.80;99.90;;;;;;5057375;28;20048;-70
2022/06/19 11:18:57;;;;;;;4.65;1.23;;;16.80;99.90;;;;;;5075179;28;20119;-70
2022/06/19 11:21:26;;;;;;;2.78;0.98;;;16.60;99.90;;;;;;5057066;28;20059;-70
2022/06/19 11:24:01;;;;;;;5.85;1.20;;;16.60;99.90;;;;;;5065872;28;20452;-69
2022/06/19 11:26:43;;;;;;;0.95;0.50;;;16.50;99.90;;;;;;5076924;28;20123;-69
2022/06/19 11:29:15;;;;;;;1.45;0.90;;;16.60;99.90;;;;;;5093464;28;20048;-69
2022/06/19 11:32:09;;;;;;;2.65;0.63;;;16.60;99.90;;;;;;5095055;28;20418;-70
2022/06/19 11:34:43;;;;;;;3.97;0.90;;;16.60;99.90;;;;;;5077300;28;20048;-70
2022/06/19 11:37:22;;;;;;;2.03;0.90;;;16.60;99.90;;;;;;5077442;28;20367;-70
2022/06/19 11:39:56;;;;;;;2.17;0.65;;;16.70;99.90;;;;;;5072729;28;20536;-69
2022/06/19 11:42:46;;;;;;;1.33;0.70;;;16.60;99.90;;;;;;5074598;28;20048;-69
2022/06/19 11:45:15;;;;;;;0.77;0.43;;;16.50;99.90;;;;;;5056789;28;20074;-70
2022/06/19 11:47:59;;;;;;;0.85;0.52;;;16.30;99.90;;;;;;5074765;28;20044;-68
2022/06/19 11:50:48;;;;;;;0.47;0.45;;;16.20;99.90;;;;;;5069361;28;20048;-69
2022/06/19 11:53:22;;;;;;;0.82;0.50;;;16.20;99.90;;;;;;5092893;28;20036;-68
2022/06/19 11:55:50;;;;;;;1.23;0.60;;;16.10;99.90;;;;;;5071943;28;20110;-69
2022/06/19 11:58:21;;;;;;;0.43;0.43;;;16.20;99.90;;;;;;5081989;28;20415;-68
2022/06/19 12:00:57;;;;;;;0.57;0.50;;;16.10;99.90;;;;;;5095474;28;20409;-69
2022/06/19 12:03:30;;;;;;;2.33;0.82;;;16.00;99.90;;;;;;5077490;28;20112;-68
2022/06/19 12:06:00;;;;;;;1.70;0.80;;;16.00;99.90;;;;;;5093678;28;20044;-68
2022/06/19 12:08:29;;;;;;;1.15;0.63;;;16.00;99.90;;;;;;5093918;28;20259;-68
2022/06/19 12:11:01;;;;;;;2.10;0.50;;;16.00;99.90;;;;;;5071725;28;20056;-68
2022/06/19 12:13:33;;;;;;;1.02;0.65;;;16.10;99.90;;;;;;5055736;28;20056;-68
2022/06/19 12:16:11;;;;;;;2.92;1.17;;;16.10;99.90;;;;;;5056274;28;20502;-68
2022/06/19 12:18:37;;;;;;;2.50;0.93;;;16.00;99.90;;;;;;5056724;28;20048;-68
2022/06/19 12:21:25;;;;;;;1.80;0.95;;;16.00;99.90;;;;;;5060066;28;20063;-68
2022/06/19 12:24:14;;;;;;;3.42;0.88;;;15.90;99.90;;;;;;5059512;28;20048;-69
2022/06/19 12:26:48;;;;;;;4.90;0.80;;;15.80;99.90;;;;;;5059453;28;20436;-69
2022/06/19 12:29:28;;;;;;;4.63;1.15;;;16.00;99.90;;;;;;5058641;28;20044;-68
2022/06/19 12:31:59;;;;;;;1.45;0.98;;;16.00;99.90;;;;;;5088288;28;20349;-68
2022/06/19 12:34:37;;;;;;;2.22;1.02;;;16.30;99.90;;;;;;5065566;28;20053;-68
2022/06/19 12:37:09;;;;;;;4.53;0.82;;;16.50;99.90;;;;;;5083174;28;20041;-69
2022/06/19 12:39:34;;;;;;;3.38;1.05;;;16.70;99.90;;;;;;5068193;28;20048;-70
2022/06/19 12:42:33;;;;;;;3.33;1.10;;;16.90;99.90;;;;;;5058851;28;20055;-69
2022/06/19 12:45:20;;;;;;;4.00;0.88;;;16.70;99.90;;;;;;5058476;28;20056;-69
2022/06/19 12:48:11;;;;;;;4.75;0.88;;;16.70;99.90;;;;;;5059066;28;20469;-69
2022/06/19 12:51:06;;;;;;;3.35;0.90;;;16.80;99.90;;;;;;5058507;28;20097;-69
2022/06/19 12:54:09;;;;;;;2.40;0.98;;;17.00;99.90;;;;;;5058685;28;20053;-70
2022/06/19 12:57:01;;;;;;;4.72;1.25;;;17.00;99.90;;;;;;5058182;28;20125;-70
2022/06/19 12:59:51;;;;;;;3.97;1.35;;;16.90;99.90;;;;;;5062084;28;20472;-70
2022/06/19 13:02:47;;;;;;;3.38;1.63;;;16.80;99.90;;;;;;5058439;28;20468;-73
2022/06/19 13:05:19;;;;;;;6.82;1.42;;;16.60;99.90;;;;;;5076185;28;20055;-72
2022/06/19 13:07:53;;;;;;;2.55;0.90;;;16.50;99.90;;;;;;5076226;28;20040;-74
2022/06/19 13:11:05;;;;;;;2.80;0.98;;;16.50;99.90;;;;;;5076330;28;20510;-71
2022/06/19 13:13:37;;;;;;;4.00;1.17;;;16.60;99.90;;;;;;5057019;28;20354;-71
2022/06/19 13:16:16;;;;;;;4.18;1.10;;;16.70;99.90;;;;;;5077906;28;20477;-69
2022/06/19 13:18:51;;;;;;;3.10;1.00;;;16.60;99.90;;;;;;5095918;28;20054;-68
2022/06/19 13:21:29;;;;;;;2.22;0.80;;;16.60;99.90;;;;;;5095498;28;20373;-68